sensor_id;sensor_type;location;lat;lon;timestamp;temperature;humidity
8882;DHT22;4477;48.736;9.176;2023-08-08T00:02:10;8.70;99.90
8882;DHT22;4477;48.736;9.176;2023-08-08T00:04:37;8.60;99.90
8882;DHT22;4477;48.736;9.176;2023-08-08T00:07:04;8.60;99.90
8882;DHT22;4477;48.736;9.176;2023-08-08T00:09:31;8.70;99.90
8882;DHT22;4477;48.736;9.176;2023-08-08T00:11:58;8.80;99.90
8882;DHT22;4477;48.736;9.176;2023-08-08T00:14:26;8.90;99.90
8882;DHT22;4477;48.736;9.176;2023-08-08T00:16:53;9.00;99.90
8882;DHT22;4477;48.736;9.176;2023-08-08T00:19:20;9.10;99.90
8882;DHT22;4477;48.736;9.176;2023-08-08T00:21:47;9.20;99.90
8882;DHT22;4477;48.736;9.176;2023-08-08T00:24:14;9.30;99.90
8882;DHT22;4477;48.736;9.176;2023-08-08T00:26:40;9.40;99.90
8882;DHT22;4477;48.736;9.176;2023-08-08T00:29:07;9.50;99.90
8882;DHT22;4477;48.736;9.176;2023-08-08T00:31:35;9.50;99.90
8882;DHT22;4477;48.736;9.176;2023-08-08T00:34:02;9.60;99.90
8882;DHT22;4477;48.736;9.176;2023-08-08T00:36:29;9.70;99.90
8882;DHT22;4477;48.736;9.176;2023-08-08T00:38:56;9.80;99.90
8882;DHT22;4477;48.736;9.176;2023-08-08T00:41:22;9.90;99.90
8882;DHT22;4477;48.736;9.176;2023-08-08T00:43:49;10.00;99.90
8882;DHT22;4477;48.736;9.176;2023-08-08T00:46:17;10.10;99.90
8882;DHT22;4477;48.736;9.176;2023-08-08T00:48:47;10.20;99.90
8882;DHT22;4477;48.736;9.176;2023-08-08T00:51:14;10.20;99.90
8882;DHT22;4477;48.736;9.176;2023-08-08T00:53:42;10.20;99.90
8882;DHT22;4477;48.736;9.176;2023-08-08T00:56:11;10.20;99.90
8882;DHT22;4477;48.736;9.176;2023-08-08T00:58:38;10.30;99.90
8882;DHT22;4477;48.736;9.176;2023-08-08T01:01:06;10.40;99.90
8882;DHT22;4477;48.736;9.176;2023-08-08T01:26:52;10.70;99.90
8882;DHT22;4477;48.736;9.176;2023-08-08T01:29:21;10.70;99.90
8882;DHT22;4477;48.736;9.176;2023-08-08T01:31:48;10.70;99.90
8882;DHT22;4477;48.736;9.176;2023-08-08T01:34:15;10.70;99.90
8882;DHT22;4477;48.736;9.176;2023-08-08T01:36:49;10.70;99.90
8882;DHT22;4477;48.736;9.176;2023-08-08T01:39:22;10.60;99.90
8882;DHT22;4477;48.736;9.176;2023-08-08T01:41:51;10.60;99.90
8882;DHT22;4477;48.736;9.176;2023-08-08T01:44:20;10.60;99.90
8882;DHT22;4477;48.736;9.176;2023-08-08T01:46:49;10.80;99.90
8882;DHT22;4477;48.736;9.176;2023-08-08T01:49:16;10.90;99.90
8882;DHT22;4477;48.736;9.176;2023-08-08T01:51:42;11.00;99.90
8882;DHT22;4477;48.736;9.176;2023-08-08T01:54:09;11.00;99.90
8882;DHT22;4477;48.736;9.176;2023-08-08T01:56:37;11.00;99.90
8882;DHT22;4477;48.736;9.176;2023-08-08T01:59:05;11.00;99.90
8882;DHT22;4477;48.736;9.176;2023-08-08T02:01:32;11.00;99.90
8882;DHT22;4477;48.736;9.176;2023-08-08T02:04:00;11.00;99.90
8882;DHT22;4477;48.736;9.176;2023-08-08T02:06:26;10.90;99.90
8882;DHT22;4477;48.736;9.176;2023-08-08T02:08:53;10.80;99.90
8882;DHT22;4477;48.736;9.176;2023-08-08T02:11:20;10.80;99.90
8882;DHT22;4477;48.736;9.176;2023-08-08T02:13:48;10.80;99.90
8882;DHT22;4477;48.736;9.176;2023-08-08T02:16:16;10.90;99.90
8882;DHT22;4477;48.736;9.176;2023-08-08T02:18:43;10.90;99.90
8882;DHT22;4477;48.736;9.176;2023-08-08T02:21:10;11.00;99.90
8882;DHT22;4477;48.736;9.176;2023-08-08T02:23:36;11.00;99.90
8882;DHT22;4477;48.736;9.176;2023-08-08T02:26:03;11.00;99.90
8882;DHT22;4477;48.736;9.176;2023-08-08T02:28:30;10.90;99.90
8882;DHT22;4477;48.736;9.176;2023-08-08T02:30:57;10.80;99.90
8882;DHT22;4477;48.736;9.176;2023-08-08T02:33:25;10.70;99.90
8882;DHT22;4477;48.736;9.176;2023-08-08T02:35:52;10.60;99.90
8882;DHT22;4477;48.736;9.176;2023-08-08T02:38:19;10.40;99.90
8882;DHT22;4477;48.736;9.176;2023-08-08T02:40:46;10.30;99.90
8882;DHT22;4477;48.736;9.176;2023-08-08T02:43:12;10.30;99.90
8882;DHT22;4477;48.736;9.176;2023-08-08T02:45:39;10.30;99.90
8882;DHT22;4477;48.736;9.176;2023-08-08T02:48:06;10.30;99.90
8882;DHT22;4477;48.736;9.176;2023-08-08T02:50:34;10.20;99.90
8882;DHT22;4477;48.736;9.176;2023-08-08T02:53:01;10.20;99.90
8882;DHT22;4477;48.736;9.176;2023-08-08T02:55:28;10.10;99.90
8882;DHT22;4477;48.736;9.176;2023-08-08T02:57:55;10.00;99.90
8882;DHT22;4477;48.736;9.176;2023-08-08T03:00:22;9.90;99.90
8882;DHT22;4477;48.736;9.176;2023-08-08T03:02:49;9.80;99.90
8882;DHT22;4477;48.736;9.176;2023-08-08T03:05:15;9.80;99.90
8882;DHT22;4477;48.736;9.176;2023-08-08T03:07:44;9.80;99.90
8882;DHT22;4477;48.736;9.176;2023-08-08T03:10:10;9.70;99.90
8882;DHT22;4477;48.736;9.176;2023-08-08T03:12:37;9.70;99.90
8882;DHT22;4477;48.736;9.176;2023-08-08T03:15:06;9.60;99.90
8882;DHT22;4477;48.736;9.176;2023-08-08T03:17:33;9.60;99.90
8882;DHT22;4477;48.736;9.176;2023-08-08T03:20:00;9.50;99.90
8882;DHT22;4477;48.736;9.176;2023-08-08T03:22:28;9.40;99.90
8882;DHT22;4477;48.736;9.176;2023-08-08T03:24:56;9.30;99.90
8882;DHT22;4477;48.736;9.176;2023-08-08T03:27:24;9.20;99.90
8882;DHT22;4477;48.736;9.176;2023-08-08T03:29:51;9.10;99.90
8882;DHT22;4477;48.736;9.176;2023-08-08T03:32:17;9.20;99.90
8882;DHT22;4477;48.736;9.176;2023-08-08T03:34:44;9.20;99.90
8882;DHT22;4477;48.736;9.176;2023-08-08T03:37:11;9.30;99.90
8882;DHT22;4477;48.736;9.176;2023-08-08T03:39:38;9.30;99.90
8882;DHT22;4477;48.736;9.176;2023-08-08T03:42:07;9.40;99.90
8882;DHT22;4477;48.736;9.176;2023-08-08T03:44:34;9.40;99.90
8882;DHT22;4477;48.736;9.176;2023-08-08T03:47:00;9.50;99.90
8882;DHT22;4477;48.736;9.176;2023-08-08T03:49:27;9.70;99.90
8882;DHT22;4477;48.736;9.176;2023-08-08T03:51:54;9.90;99.90
8882;DHT22;4477;48.736;9.176;2023-08-08T03:54:21;10.10;99.90
8882;DHT22;4477;48.736;9.176;2023-08-08T03:56:47;10.30;99.90
8882;DHT22;4477;48.736;9.176;2023-08-08T03:59:16;10.50;99.90
8882;DHT22;4477;48.736;9.176;2023-08-08T04:01:42;10.60;99.90
8882;DHT22;4477;48.736;9.176;2023-08-08T04:04:09;10.70;99.90
8882;DHT22;4477;48.736;9.176;2023-08-08T04:06:36;10.80;99.90
8882;DHT22;4477;48.736;9.176;2023-08-08T04:09:03;10.90;99.90
8882;DHT22;4477;48.736;9.176;2023-08-08T04:11:30;11.00;99.90
8882;DHT22;4477;48.736;9.176;2023-08-08T04:13:57;11.00;99.90
8882;DHT22;4477;48.736;9.176;2023-08-08T04:16:25;11.10;99.90
8882;DHT22;4477;48.736;9.176;2023-08-08T04:18:52;11.20;99.90
8882;DHT22;4477;48.736;9.176;2023-08-08T04:21:18;11.30;99.90
8882;DHT22;4477;48.736;9.176;2023-08-08T04:23:45;11.40;99.90
8882;DHT22;4477;48.736;9.176;2023-08-08T04:26:12;11.40;99.90
8882;DHT22;4477;48.736;9.176;2023-08-08T04:28:40;11.50;99.90
8882;DHT22;4477;48.736;9.176;2023-08-08T04:31:07;11.60;99.90
8882;DHT22;4477;48.736;9.176;2023-08-08T04:33:35;11.70;99.90
8882;DHT22;4477;48.736;9.176;2023-08-08T04:36:02;11.70;99.90
8882;DHT22;4477;48.736;9.176;2023-08-08T04:38:29;11.70;99.90
8882;DHT22;4477;48.736;9.176;2023-08-08T04:40:55;11.80;99.90
8882;DHT22;4477;48.736;9.176;2023-08-08T04:43:21;11.70;99.90
8882;DHT22;4477;48.736;9.176;2023-08-08T04:45:49;11.70;99.90
8882;DHT22;4477;48.736;9.176;2023-08-08T04:48:15;11.60;99.90
8882;DHT22;4477;48.736;9.176;2023-08-08T04:50:46;11.70;99.90
8882;DHT22;4477;48.736;9.176;2023-08-08T04:53:13;11.70;99.90
8882;DHT22;4477;48.736;9.176;2023-08-08T04:55:39;11.60;99.90
8882;DHT22;4477;48.736;9.176;2023-08-08T04:58:09;11.50;99.90
8882;DHT22;4477;48.736;9.176;2023-08-08T05:00:35;11.50;99.90
8882;DHT22;4477;48.736;9.176;2023-08-08T05:03:06;11.50;99.90
8882;DHT22;4477;48.736;9.176;2023-08-08T05:05:32;11.50;99.90
8882;DHT22;4477;48.736;9.176;2023-08-08T05:08:01;11.50;99.90
8882;DHT22;4477;48.736;9.176;2023-08-08T14:47:42;11.50;99.90
8882;DHT22;4477;48.736;9.176;2023-08-08T14:50:09;20.30;57.10
8882;DHT22;4477;48.736;9.176;2023-08-08T14:52:37;20.50;58.70
8882;DHT22;4477;48.736;9.176;2023-08-08T14:55:05;20.70;57.00
8882;DHT22;4477;48.736;9.176;2023-08-08T14:57:32;21.40;58.10
8882;DHT22;4477;48.736;9.176;2023-08-08T14:59:59;21.90;56.80
8882;DHT22;4477;48.736;9.176;2023-08-08T15:02:26;22.00;56.40
8882;DHT22;4477;48.736;9.176;2023-08-08T15:04:53;21.80;56.00
8882;DHT22;4477;48.736;9.176;2023-08-08T15:07:20;21.40;55.90
8882;DHT22;4477;48.736;9.176;2023-08-08T15:09:49;21.20;57.40
8882;DHT22;4477;48.736;9.176;2023-08-08T15:12:17;20.90;55.90
8882;DHT22;4477;48.736;9.176;2023-08-08T15:14:46;20.50;57.40
8882;DHT22;4477;48.736;9.176;2023-08-08T15:17:14;20.00;59.10
8882;DHT22;4477;48.736;9.176;2023-08-08T15:19:41;19.80;59.50
8882;DHT22;4477;48.736;9.176;2023-08-08T15:22:07;19.80;59.70
8882;DHT22;4477;48.736;9.176;2023-08-08T15:24:34;19.90;60.80
8882;DHT22;4477;48.736;9.176;2023-08-08T15:27:03;20.40;60.70
8882;DHT22;4477;48.736;9.176;2023-08-08T15:29:30;21.00;59.20
8882;DHT22;4477;48.736;9.176;2023-08-08T15:44:17;21.90;57.60
8882;DHT22;4477;48.736;9.176;2023-08-08T15:46:44;22.10;54.80
8882;DHT22;4477;48.736;9.176;2023-08-08T15:49:10;21.10;57.20
8882;DHT22;4477;48.736;9.176;2023-08-08T15:51:38;20.50;59.00
8882;DHT22;4477;48.736;9.176;2023-08-08T15:54:05;20.00;60.00
8882;DHT22;4477;48.736;9.176;2023-08-08T15:56:33;19.50;61.50
8882;DHT22;4477;48.736;9.176;2023-08-08T15:58:59;19.40;64.00
8882;DHT22;4477;48.736;9.176;2023-08-08T16:01:28;19.40;62.00
8882;DHT22;4477;48.736;9.176;2023-08-08T16:03:54;19.50;61.90
8882;DHT22;4477;48.736;9.176;2023-08-08T16:06:21;19.70;63.00
8882;DHT22;4477;48.736;9.176;2023-08-08T16:08:48;19.80;62.30
8882;DHT22;4477;48.736;9.176;2023-08-08T16:11:15;19.80;62.30
8882;DHT22;4477;48.736;9.176;2023-08-08T16:13:42;19.70;63.40
8882;DHT22;4477;48.736;9.176;2023-08-08T16:16:09;20.20;63.20
8882;DHT22;4477;48.736;9.176;2023-08-08T16:18:37;20.60;61.30
8882;DHT22;4477;48.736;9.176;2023-08-08T16:21:04;21.10;59.10
8882;DHT22;4477;48.736;9.176;2023-08-08T16:23:31;21.40;59.30
8882;DHT22;4477;48.736;9.176;2023-08-08T16:25:58;21.40;56.70
8882;DHT22;4477;48.736;9.176;2023-08-08T16:28:25;21.10;57.80
8882;DHT22;4477;48.736;9.176;2023-08-08T16:30:54;20.80;59.60
8882;DHT22;4477;48.736;9.176;2023-08-08T16:33:21;20.80;59.70
8882;DHT22;4477;48.736;9.176;2023-08-08T16:35:50;20.60;57.20
8882;DHT22;4477;48.736;9.176;2023-08-08T16:38:16;20.10;59.30
8882;DHT22;4477;48.736;9.176;2023-08-08T16:40:43;19.60;60.80
8882;DHT22;4477;48.736;9.176;2023-08-08T16:43:10;19.20;63.40
8882;DHT22;4477;48.736;9.176;2023-08-08T16:45:38;19.00;65.00
8882;DHT22;4477;48.736;9.176;2023-08-08T16:48:05;18.70;64.20
8882;DHT22;4477;48.736;9.176;2023-08-08T16:50:32;18.60;65.20
8882;DHT22;4477;48.736;9.176;2023-08-08T16:53:01;18.50;67.00
8882;DHT22;4477;48.736;9.176;2023-08-08T16:55:28;18.50;65.90
8882;DHT22;4477;48.736;9.176;2023-08-08T16:57:55;18.70;67.40
8882;DHT22;4477;48.736;9.176;2023-08-08T17:00:22;19.00;66.10
8882;DHT22;4477;48.736;9.176;2023-08-08T17:02:48;19.20;64.00
8882;DHT22;4477;48.736;9.176;2023-08-08T17:05:15;19.30;64.20
8882;DHT22;4477;48.736;9.176;2023-08-08T17:07:42;19.40;65.80
8882;DHT22;4477;48.736;9.176;2023-08-08T17:10:11;19.30;65.10
8882;DHT22;4477;48.736;9.176;2023-08-08T17:12:38;19.30;65.80
8882;DHT22;4477;48.736;9.176;2023-08-08T17:15:06;19.30;66.20
8882;DHT22;4477;48.736;9.176;2023-08-08T17:17:33;19.20;65.20
8882;DHT22;4477;48.736;9.176;2023-08-08T17:20:00;19.20;66.20
8882;DHT22;4477;48.736;9.176;2023-08-08T17:22:29;19.10;66.10
8882;DHT22;4477;48.736;9.176;2023-08-08T17:24:56;19.00;66.20
8882;DHT22;4477;48.736;9.176;2023-08-08T17:27:24;18.90;66.20
8882;DHT22;4477;48.736;9.176;2023-08-08T17:29:51;18.80;66.80
8882;DHT22;4477;48.736;9.176;2023-08-08T17:32:18;18.70;69.00
8882;DHT22;4477;48.736;9.176;2023-08-08T17:34:45;18.70;68.50
8882;DHT22;4477;48.736;9.176;2023-08-08T17:37:12;18.60;67.80
8882;DHT22;4477;48.736;9.176;2023-08-08T17:39:38;18.60;68.90
8882;DHT22;4477;48.736;9.176;2023-08-08T17:42:05;18.50;70.50
8882;DHT22;4477;48.736;9.176;2023-08-08T17:44:33;18.40;69.70
8882;DHT22;4477;48.736;9.176;2023-08-08T17:47:00;18.40;67.30
8882;DHT22;4477;48.736;9.176;2023-08-08T17:49:28;18.40;68.00
8882;DHT22;4477;48.736;9.176;2023-08-08T17:51:55;18.40;67.80
8882;DHT22;4477;48.736;9.176;2023-08-08T17:54:21;18.30;69.30
8882;DHT22;4477;48.736;9.176;2023-08-08T17:56:48;18.20;67.80
8882;DHT22;4477;48.736;9.176;2023-08-08T17:59:15;18.10;68.30
8882;DHT22;4477;48.736;9.176;2023-08-08T18:01:43;18.10;69.10
8882;DHT22;4477;48.736;9.176;2023-08-08T18:04:10;18.00;68.80
8882;DHT22;4477;48.736;9.176;2023-08-08T18:06:37;18.00;68.80
8882;DHT22;4477;48.736;9.176;2023-08-08T18:09:04;18.00;69.40
8882;DHT22;4477;48.736;9.176;2023-08-08T18:11:31;18.00;68.80
8882;DHT22;4477;48.736;9.176;2023-08-08T18:14:04;17.90;68.70
8882;DHT22;4477;48.736;9.176;2023-08-08T18:16:31;17.90;69.40
8882;DHT22;4477;48.736;9.176;2023-08-08T18:19:00;17.90;70.00
8882;DHT22;4477;48.736;9.176;2023-08-08T18:21:27;17.80;70.40
8882;DHT22;4477;48.736;9.176;2023-08-08T18:23:54;17.70;71.50
8882;DHT22;4477;48.736;9.176;2023-08-08T18:26:21;17.60;71.10
8882;DHT22;4477;48.736;9.176;2023-08-08T18:28:49;17.50;71.30
8882;DHT22;4477;48.736;9.176;2023-08-08T18:31:17;17.40;72.50
8882;DHT22;4477;48.736;9.176;2023-08-08T18:33:44;17.40;72.00
8882;DHT22;4477;48.736;9.176;2023-08-08T18:36:13;17.30;72.40
8882;DHT22;4477;48.736;9.176;2023-08-08T18:38:39;17.20;72.50
8882;DHT22;4477;48.736;9.176;2023-08-08T18:41:08;17.20;74.00
8882;DHT22;4477;48.736;9.176;2023-08-08T18:43:35;17.10;73.30
8882;DHT22;4477;48.736;9.176;2023-08-08T18:46:01;17.00;74.30
8882;DHT22;4477;48.736;9.176;2023-08-08T18:48:28;16.90;74.90
8882;DHT22;4477;48.736;9.176;2023-08-08T18:50:56;16.80;75.50
8882;DHT22;4477;48.736;9.176;2023-08-08T18:53:26;16.70;75.60
8882;DHT22;4477;48.736;9.176;2023-08-08T18:55:53;16.60;77.50
8882;DHT22;4477;48.736;9.176;2023-08-08T18:58:20;16.50;77.30
8882;DHT22;4477;48.736;9.176;2023-08-08T19:00:46;16.50;77.80
8882;DHT22;4477;48.736;9.176;2023-08-08T19:03:13;16.50;78.30
8882;DHT22;4477;48.736;9.176;2023-08-08T19:05:40;16.50;78.60
8882;DHT22;4477;48.736;9.176;2023-08-08T19:08:07;16.50;80.00
8882;DHT22;4477;48.736;9.176;2023-08-08T19:10:35;16.50;79.30
8882;DHT22;4477;48.736;9.176;2023-08-08T19:13:03;16.50;79.60
8882;DHT22;4477;48.736;9.176;2023-08-08T19:15:29;16.60;78.60
8882;DHT22;4477;48.736;9.176;2023-08-08T19:17:56;16.60;79.70
8882;DHT22;4477;48.736;9.176;2023-08-08T19:20:23;16.50;79.60
8882;DHT22;4477;48.736;9.176;2023-08-08T19:22:50;16.50;79.30
8882;DHT22;4477;48.736;9.176;2023-08-08T19:25:17;16.50;80.30
8882;DHT22;4477;48.736;9.176;2023-08-08T19:27:47;16.40;81.10
8882;DHT22;4477;48.736;9.176;2023-08-08T19:30:14;16.30;82.00
8882;DHT22;4477;48.736;9.176;2023-08-08T19:32:41;16.20;82.10
8882;DHT22;4477;48.736;9.176;2023-08-08T19:35:08;16.20;81.70
8882;DHT22;4477;48.736;9.176;2023-08-08T19:37:35;16.20;83.30
8882;DHT22;4477;48.736;9.176;2023-08-08T19:40:02;16.20;81.80
8882;DHT22;4477;48.736;9.176;2023-08-08T19:42:29;16.20;83.30
8882;DHT22;4477;48.736;9.176;2023-08-08T19:44:57;16.10;85.00
8882;DHT22;4477;48.736;9.176;2023-08-08T19:47:24;16.10;83.10
8882;DHT22;4477;48.736;9.176;2023-08-08T19:49:51;16.10;84.60
8882;DHT22;4477;48.736;9.176;2023-08-08T19:52:18;16.00;84.10
8882;DHT22;4477;48.736;9.176;2023-08-08T19:54:44;16.00;86.10
8882;DHT22;4477;48.736;9.176;2023-08-08T19:57:11;15.80;85.90
8882;DHT22;4477;48.736;9.176;2023-08-08T19:59:38;15.90;86.20
8882;DHT22;4477;48.736;9.176;2023-08-08T20:02:06;15.80;87.10
8882;DHT22;4477;48.736;9.176;2023-08-08T20:04:33;15.70;87.10
8882;DHT22;4477;48.736;9.176;2023-08-08T20:07:00;15.70;89.00
8882;DHT22;4477;48.736;9.176;2023-08-08T20:09:27;15.70;87.80
8882;DHT22;4477;48.736;9.176;2023-08-08T20:11:54;15.60;87.60
8882;DHT22;4477;48.736;9.176;2023-08-08T20:14:20;15.70;86.80
8882;DHT22;4477;48.736;9.176;2023-08-08T20:16:47;15.70;87.60
8882;DHT22;4477;48.736;9.176;2023-08-08T20:19:15;15.70;87.20
8882;DHT22;4477;48.736;9.176;2023-08-08T20:21:42;15.70;88.30
8882;DHT22;4477;48.736;9.176;2023-08-08T20:24:12;15.70;90.30
8882;DHT22;4477;48.736;9.176;2023-08-08T20:26:39;15.70;89.60
8882;DHT22;4477;48.736;9.176;2023-08-08T20:29:06;15.60;89.80
8882;DHT22;4477;48.736;9.176;2023-08-08T20:31:33;15.50;90.10
8882;DHT22;4477;48.736;9.176;2023-08-08T20:34:03;15.50;89.90
8882;DHT22;4477;48.736;9.176;2023-08-08T20:36:31;15.50;90.60
8882;DHT22;4477;48.736;9.176;2023-08-08T20:38:58;15.50;89.40
8882;DHT22;4477;48.736;9.176;2023-08-08T20:41:25;15.50;90.10
8882;DHT22;4477;48.736;9.176;2023-08-08T20:43:52;15.50;89.10
8882;DHT22;4477;48.736;9.176;2023-08-08T20:46:19;15.50;89.40
8882;DHT22;4477;48.736;9.176;2023-08-08T20:48:46;15.60;90.00
8882;DHT22;4477;48.736;9.176;2023-08-08T20:51:13;15.50;89.30
8882;DHT22;4477;48.736;9.176;2023-08-08T20:53:45;15.40;90.60
8882;DHT22;4477;48.736;9.176;2023-08-08T20:56:12;15.40;90.10
8882;DHT22;4477;48.736;9.176;2023-08-08T20:58:38;15.40;90.30
8882;DHT22;4477;48.736;9.176;2023-08-08T21:01:05;15.30;91.00
8882;DHT22;4477;48.736;9.176;2023-08-08T21:03:32;15.30;91.10
8882;DHT22;4477;48.736;9.176;2023-08-08T21:05:59;15.20;90.40
8882;DHT22;4477;48.736;9.176;2023-08-08T21:08:26;15.20;91.20
8882;DHT22;4477;48.736;9.176;2023-08-08T21:10:57;15.10;92.30
8882;DHT22;4477;48.736;9.176;2023-08-08T21:13:24;15.10;91.10
8882;DHT22;4477;48.736;9.176;2023-08-08T21:15:51;15.10;91.80
8882;DHT22;4477;48.736;9.176;2023-08-08T21:18:19;15.00;91.60
8882;DHT22;4477;48.736;9.176;2023-08-08T21:20:46;15.00;92.10
8882;DHT22;4477;48.736;9.176;2023-08-08T21:23:13;14.90;92.50
8882;DHT22;4477;48.736;9.176;2023-08-08T21:25:39;14.80;92.60
8882;DHT22;4477;48.736;9.176;2023-08-08T21:28:07;14.70;93.10
8882;DHT22;4477;48.736;9.176;2023-08-08T21:30:35;14.70;93.20
8882;DHT22;4477;48.736;9.176;2023-08-08T21:33:02;14.70;93.90
8882;DHT22;4477;48.736;9.176;2023-08-08T21:35:28;14.60;93.60
8882;DHT22;4477;48.736;9.176;2023-08-08T21:37:55;14.70;94.30
8882;DHT22;4477;48.736;9.176;2023-08-08T21:40:22;14.70;94.10
8882;DHT22;4477;48.736;9.176;2023-08-08T21:42:49;14.70;94.50
8882;DHT22;4477;48.736;9.176;2023-08-08T21:45:17;14.80;94.40
8882;DHT22;4477;48.736;9.176;2023-08-08T21:47:44;14.80;94.40
8882;DHT22;4477;48.736;9.176;2023-08-08T21:50:11;14.90;94.00
8882;DHT22;4477;48.736;9.176;2023-08-08T21:52:38;14.90;93.90
8882;DHT22;4477;48.736;9.176;2023-08-08T21:55:05;15.00;93.80
8882;DHT22;4477;48.736;9.176;2023-08-08T21:57:32;15.00;94.50
8882;DHT22;4477;48.736;9.176;2023-08-08T21:59:59;15.10;93.90
8882;DHT22;4477;48.736;9.176;2023-08-08T22:02:30;15.10;93.60
8882;DHT22;4477;48.736;9.176;2023-08-08T22:04:57;15.20;93.30
8882;DHT22;4477;48.736;9.176;2023-08-08T22:07:25;15.20;92.90
8882;DHT22;4477;48.736;9.176;2023-08-08T22:09:52;15.20;93.00
8882;DHT22;4477;48.736;9.176;2023-08-08T22:12:19;15.20;93.00
8882;DHT22;4477;48.736;9.176;2023-08-08T22:14:47;15.20;92.80
8882;DHT22;4477;48.736;9.176;2023-08-08T22:17:15;15.20;92.90
8882;DHT22;4477;48.736;9.176;2023-08-08T22:19:46;15.20;93.00
8882;DHT22;4477;48.736;9.176;2023-08-08T22:22:18;15.10;92.90
8882;DHT22;4477;48.736;9.176;2023-08-08T22:24:48;15.10;93.60
8882;DHT22;4477;48.736;9.176;2023-08-08T22:27:18;15.00;93.70
8882;DHT22;4477;48.736;9.176;2023-08-08T22:29:56;14.90;93.70
8882;DHT22;4477;48.736;9.176;2023-08-08T22:32:30;14.90;94.20
8882;DHT22;4477;48.736;9.176;2023-08-08T22:35:02;14.80;94.30
8882;DHT22;4477;48.736;9.176;2023-08-08T22:37:31;14.80;94.40
8882;DHT22;4477;48.736;9.176;2023-08-08T22:40:00;14.80;94.40
8882;DHT22;4477;48.736;9.176;2023-08-08T22:42:29;14.90;94.70
8882;DHT22;4477;48.736;9.176;2023-08-08T22:44:56;14.90;94.80
8882;DHT22;4477;48.736;9.176;2023-08-08T22:47:24;14.90;94.90
8882;DHT22;4477;48.736;9.176;2023-08-08T22:49:54;14.80;94.90
8882;DHT22;4477;48.736;9.176;2023-08-08T22:52:42;14.80;94.70
8882;DHT22;4477;48.736;9.176;2023-08-08T22:55:09;14.80;94.80
8882;DHT22;4477;48.736;9.176;2023-08-08T22:57:37;14.80;95.30
8882;DHT22;4477;48.736;9.176;2023-08-08T23:00:07;14.80;94.40
8882;DHT22;4477;48.736;9.176;2023-08-08T23:02:35;14.90;94.50
8882;DHT22;4477;48.736;9.176;2023-08-08T23:05:04;14.90;94.80
8882;DHT22;4477;48.736;9.176;2023-08-08T23:07:42;14.80;94.70
8882;DHT22;4477;48.736;9.176;2023-08-08T23:10:10;14.80;95.10
8882;DHT22;4477;48.736;9.176;2023-08-08T23:12:38;14.80;94.90
8882;DHT22;4477;48.736;9.176;2023-08-08T23:15:05;14.80;94.90
8882;DHT22;4477;48.736;9.176;2023-08-08T23:17:32;14.80;95.40
8882;DHT22;4477;48.736;9.176;2023-08-08T23:19:59;14.80;95.60
8882;DHT22;4477;48.736;9.176;2023-08-08T23:22:26;14.80;95.30
8882;DHT22;4477;48.736;9.176;2023-08-08T23:24:55;14.80;95.10
8882;DHT22;4477;48.736;9.176;2023-08-08T23:27:21;14.90;94.40
8882;DHT22;4477;48.736;9.176;2023-08-08T23:29:48;15.00;94.40
8882;DHT22;4477;48.736;9.176;2023-08-08T23:32:15;15.00;94.20
8882;DHT22;4477;48.736;9.176;2023-08-08T23:34:42;15.00;94.10
8882;DHT22;4477;48.736;9.176;2023-08-08T23:37:09;15.00;94.50
8882;DHT22;4477;48.736;9.176;2023-08-08T23:39:35;15.10;93.90
8882;DHT22;4477;48.736;9.176;2023-08-08T23:42:04;15.00;94.30
8882;DHT22;4477;48.736;9.176;2023-08-08T23:44:31;15.10;93.80
8882;DHT22;4477;48.736;9.176;2023-08-08T23:46:58;15.10;93.60
8882;DHT22;4477;48.736;9.176;2023-08-08T23:49:25;15.10;93.80
8882;DHT22;4477;48.736;9.176;2023-08-08T23:51:52;15.10;94.10
8882;DHT22;4477;48.736;9.176;2023-08-08T23:54:19;15.10;93.80
8882;DHT22;4477;48.736;9.176;2023-08-08T23:56:46;15.10;93.70
8882;DHT22;4477;48.736;9.176;2023-08-08T23:59:14;15.10;94.00
